createdAt,value
2023-01-17T00:00:37.094Z,977.67
2023-01-17T00:01:37.015Z,977.62
2023-01-17T00:02:37.007Z,977.65
2023-01-17T00:03:36.965Z,977.65
2023-01-17T00:04:36.938Z,977.60
2023-01-17T00:05:36.927Z,977.61
2023-01-17T00:06:36.831Z,977.63
2023-01-17T00:07:36.789Z,977.60
2023-01-17T00:08:36.754Z,977.59
2023-01-17T00:09:36.727Z,977.59
2023-01-17T00:10:36.704Z,977.54
2023-01-17T00:11:36.701Z,977.53
2023-01-17T00:12:36.635Z,977.51
2023-01-17T00:13:36.595Z,977.48
2023-01-17T00:14:36.562Z,977.54
2023-01-17T00:15:36.541Z,977.54
2023-01-17T00:16:36.468Z,977.50
2023-01-17T00:17:36.489Z,977.50
2023-01-17T00:18:36.498Z,977.48
2023-01-17T00:19:36.387Z,977.40
2023-01-17T00:20:36.321Z,977.42
2023-01-17T00:21:36.279Z,977.42
2023-01-17T00:22:36.251Z,977.39
2023-01-17T00:23:36.269Z,977.37
2023-01-17T00:24:36.188Z,977.37
2023-01-17T00:25:36.140Z,977.38
2023-01-17T00:26:36.103Z,977.35
2023-01-17T00:27:36.069Z,977.37
2023-01-17T00:28:36.107Z,977.35
2023-01-17T00:29:35.995Z,977.33
2023-01-17T00:30:35.960Z,977.33
2023-01-17T00:31:35.979Z,977.33
2023-01-17T00:32:35.881Z,977.32
2023-01-17T00:33:35.852Z,977.31
2023-01-17T00:34:35.870Z,977.37
2023-01-17T00:35:35.779Z,977.36
2023-01-17T00:36:35.734Z,977.38
2023-01-17T00:37:35.700Z,977.33
2023-01-17T00:38:35.684Z,977.34
2023-01-17T00:39:35.622Z,977.35
2023-01-17T00:40:35.673Z,977.30
2023-01-17T00:41:35.551Z,977.32
2023-01-17T00:42:35.523Z,977.31
2023-01-17T00:43:35.477Z,977.30
2023-01-17T00:44:35.451Z,977.26
2023-01-17T00:45:35.409Z,977.30
2023-01-17T00:46:35.478Z,977.31
2023-01-17T00:47:35.328Z,977.29
2023-01-17T00:48:35.296Z,977.35
2023-01-17T00:49:35.267Z,977.37
2023-01-17T00:50:35.222Z,977.37
2023-01-17T00:51:35.190Z,977.36
2023-01-17T00:52:35.209Z,977.37
2023-01-17T00:53:35.108Z,977.36
2023-01-17T00:54:35.079Z,977.35
2023-01-17T00:55:35.034Z,977.35
2023-01-17T00:56:35.005Z,977.35
2023-01-17T00:57:35.025Z,977.32
2023-01-17T00:58:34.939Z,977.33
2023-01-17T00:59:34.888Z,977.32
2023-01-17T01:00:34.886Z,977.31
2023-01-17T01:01:35.030Z,977.30
2023-01-17T01:02:34.801Z,977.29
2023-01-17T01:03:34.810Z,977.27
2023-01-17T01:04:34.709Z,977.26
2023-01-17T01:05:34.700Z,977.26
2023-01-17T01:06:34.643Z,977.34
2023-01-17T01:07:34.604Z,977.31
2023-01-17T01:08:34.555Z,977.29
2023-01-17T01:09:34.578Z,977.35
2023-01-17T01:10:34.493Z,977.35
2023-01-17T01:11:34.443Z,977.35
2023-01-17T01:12:34.424Z,977.34
2023-01-17T01:13:34.380Z,977.35
2023-01-17T01:14:34.351Z,977.35
2023-01-17T01:15:34.364Z,977.34
2023-01-17T01:16:34.329Z,977.32
2023-01-17T01:17:34.271Z,977.28
2023-01-17T01:18:34.211Z,977.31
2023-01-17T01:19:34.174Z,977.24
2023-01-17T01:20:34.126Z,977.27
2023-01-17T01:21:34.133Z,977.29
2023-01-17T01:22:34.054Z,977.25
2023-01-17T01:23:34.006Z,977.22
2023-01-17T01:24:33.979Z,977.22
2023-01-17T01:25:33.941Z,977.20
2023-01-17T01:26:33.899Z,977.16
2023-01-17T01:27:33.965Z,977.19
2023-01-17T01:28:33.830Z,977.19
2023-01-17T01:29:33.798Z,977.20
2023-01-17T01:30:33.851Z,977.21
2023-01-17T01:31:33.770Z,977.20
2023-01-17T01:32:33.695Z,977.17
2023-01-17T01:33:33.654Z,977.19
2023-01-17T01:34:33.612Z,977.20
2023-01-17T01:35:33.571Z,977.17
2023-01-17T01:36:33.596Z,977.13
2023-01-17T01:37:33.514Z,977.19
2023-01-17T01:38:33.473Z,977.16
2023-01-17T01:39:33.425Z,977.17
2023-01-17T01:40:33.412Z,977.16
2023-01-17T01:41:33.354Z,977.13
2023-01-17T01:42:33.383Z,977.17
2023-01-17T01:43:33.288Z,977.15
2023-01-17T01:44:33.250Z,977.13
2023-01-17T01:45:33.261Z,977.13
2023-01-17T01:46:33.173Z,977.09
2023-01-17T01:47:33.143Z,977.09
2023-01-17T01:48:33.158Z,977.09
2023-01-17T01:49:33.056Z,977.07
2023-01-17T01:50:33.022Z,977.06
2023-01-17T01:51:32.991Z,977.10
2023-01-17T01:52:32.948Z,977.06
2023-01-17T01:53:32.913Z,977.05
2023-01-17T01:54:32.924Z,977.08
2023-01-17T01:55:32.841Z,977.09
2023-01-17T01:56:32.808Z,977.04
2023-01-17T01:57:32.796Z,977.09
2023-01-17T01:58:32.733Z,977.08
2023-01-17T01:59:32.696Z,977.07
2023-01-17T02:00:32.738Z,977.07
2023-01-17T02:01:32.725Z,977.05
2023-01-17T02:02:32.596Z,977.06
2023-01-17T02:03:32.595Z,977.07
2023-01-17T02:04:32.528Z,977.05
2023-01-17T02:05:32.482Z,977.06
2023-01-17T02:06:32.522Z,977.09
2023-01-17T02:07:32.465Z,977.05
2023-01-17T02:08:32.358Z,977.02
2023-01-17T02:09:32.340Z,977.03
2023-01-17T02:10:32.298Z,977.03
2023-01-17T02:11:32.262Z,977.01
2023-01-17T02:12:32.300Z,977.03
2023-01-17T02:13:32.176Z,977.01
2023-01-17T02:14:32.158Z,976.99
2023-01-17T02:15:32.110Z,976.97
2023-01-17T02:16:32.081Z,976.93
2023-01-17T02:17:32.031Z,976.96
2023-01-17T02:18:32.054Z,976.93
2023-01-17T02:19:31.954Z,976.94
2023-01-17T02:20:31.925Z,976.95
2023-01-17T02:21:31.882Z,976.96
2023-01-17T02:22:31.858Z,976.98
2023-01-17T02:23:31.818Z,976.94
2023-01-17T02:24:31.828Z,976.94
2023-01-17T02:25:31.739Z,976.96
2023-01-17T02:26:31.700Z,976.98
2023-01-17T02:27:31.660Z,977.02
2023-01-17T02:28:31.636Z,976.96
2023-01-17T02:29:31.678Z,977.03
2023-01-17T02:30:31.611Z,976.97
2023-01-17T02:31:31.533Z,977.01
2023-01-17T02:32:31.481Z,977.00
2023-01-17T02:33:31.443Z,976.97
2023-01-17T02:34:31.463Z,977.07
2023-01-17T02:35:31.427Z,977.00
2023-01-17T02:36:31.352Z,976.97
2023-01-17T02:37:31.298Z,977.02
2023-01-17T02:38:31.260Z,976.96
2023-01-17T02:39:31.220Z,976.94
2023-01-17T02:40:31.255Z,976.91
2023-01-17T02:41:31.155Z,976.95
2023-01-17T02:42:31.118Z,977.02
2023-01-17T02:43:31.079Z,977.01
2023-01-17T02:44:31.041Z,976.98
2023-01-17T02:45:31.154Z,977.00
2023-01-17T02:46:30.964Z,976.98
2023-01-17T02:47:30.934Z,976.99
2023-01-17T02:48:30.894Z,976.98
2023-01-17T02:49:30.859Z,977.02
2023-01-17T02:50:30.812Z,977.00
2023-01-17T02:51:30.838Z,976.98
2023-01-17T02:52:30.756Z,976.98
2023-01-17T02:53:30.718Z,977.01
2023-01-17T02:54:30.671Z,977.02
2023-01-17T02:55:30.638Z,977.00
2023-01-17T02:56:32.519Z,977.04
2023-01-17T02:57:30.624Z,977.04
2023-01-17T02:58:30.522Z,977.06
2023-01-17T02:59:30.493Z,977.06
2023-01-17T03:00:30.467Z,977.05
2023-01-17T03:01:30.620Z,977.10
2023-01-17T03:02:30.411Z,977.12
2023-01-17T03:03:30.349Z,977.14
2023-01-17T03:04:30.309Z,977.12
2023-01-17T03:05:30.275Z,977.17
2023-01-17T03:06:30.306Z,977.17
2023-01-17T03:07:30.195Z,977.18
2023-01-17T03:08:30.162Z,977.11
2023-01-17T03:09:30.154Z,977.11
2023-01-17T03:10:30.092Z,977.11
2023-01-17T03:11:30.054Z,977.10
2023-01-17T03:12:30.088Z,977.12
2023-01-17T03:13:29.980Z,977.08
2023-01-17T03:14:29.948Z,977.04
2023-01-17T03:15:29.906Z,977.05
2023-01-17T03:16:29.948Z,977.09
2023-01-17T03:17:29.901Z,977.14
2023-01-17T03:18:29.804Z,977.10
2023-01-17T03:19:29.760Z,977.10
2023-01-17T03:20:29.732Z,977.10
2023-01-17T03:21:29.698Z,977.10
2023-01-17T03:22:29.720Z,977.14
2023-01-17T03:23:29.611Z,977.10
2023-01-17T03:24:29.581Z,977.13
2023-01-17T03:25:29.545Z,977.11
2023-01-17T03:26:29.502Z,977.15
2023-01-17T03:27:29.527Z,977.15
2023-01-17T03:28:29.435Z,977.16
2023-01-17T03:29:29.400Z,977.12
2023-01-17T03:30:29.394Z,977.14
2023-01-17T03:31:29.340Z,977.14
2023-01-17T03:32:29.314Z,977.20
2023-01-17T03:33:29.360Z,977.13
2023-01-17T03:34:29.219Z,977.11
2023-01-17T03:35:29.199Z,977.17
2023-01-17T03:36:29.147Z,977.15
2023-01-17T03:37:29.114Z,977.18
2023-01-17T03:38:29.075Z,977.14
2023-01-17T03:39:29.093Z,977.16
2023-01-17T03:40:28.997Z,977.20
2023-01-17T03:41:28.967Z,977.15
2023-01-17T03:42:28.923Z,977.20
2023-01-17T03:43:28.900Z,977.17
2023-01-17T03:44:28.919Z,977.13
2023-01-17T03:45:28.834Z,977.16
2023-01-17T03:46:28.777Z,977.16
2023-01-17T03:47:28.752Z,977.15
2023-01-17T03:48:28.717Z,977.13
2023-01-17T03:49:28.729Z,977.18
2023-01-17T03:50:28.636Z,977.16
2023-01-17T03:51:28.604Z,977.18
2023-01-17T03:52:28.564Z,977.12
2023-01-17T03:53:28.523Z,977.15
2023-01-17T03:54:28.559Z,977.17
2023-01-17T03:55:28.478Z,977.16
2023-01-17T03:56:28.426Z,977.20
2023-01-17T03:57:28.378Z,977.17
2023-01-17T03:58:28.349Z,977.22
2023-01-17T03:59:28.316Z,977.20
2023-01-17T04:00:28.327Z,977.26
2023-01-17T04:01:28.366Z,977.23
2023-01-17T04:02:28.244Z,977.24
2023-01-17T04:03:28.183Z,977.29
2023-01-17T04:04:28.145Z,977.28
2023-01-17T04:05:28.166Z,977.32
2023-01-17T04:06:28.052Z,977.33
2023-01-17T04:07:28.026Z,977.35
2023-01-17T04:08:27.986Z,977.33
2023-01-17T04:09:27.949Z,977.38
2023-01-17T04:10:27.916Z,977.34
2023-01-17T04:11:27.969Z,977.38
2023-01-17T04:12:27.837Z,977.40
2023-01-17T04:13:27.804Z,977.38
2023-01-17T04:14:27.775Z,977.42
2023-01-17T04:15:27.726Z,977.42
2023-01-17T04:16:27.746Z,977.40
2023-01-17T04:17:27.709Z,977.42
2023-01-17T04:18:27.653Z,977.43
2023-01-17T04:19:27.584Z,977.46
2023-01-17T04:20:27.569Z,977.51
2023-01-17T04:21:27.583Z,977.48
2023-01-17T04:22:27.482Z,977.53
2023-01-17T04:23:27.454Z,977.50
2023-01-17T04:24:27.406Z,977.52
2023-01-17T04:25:27.368Z,977.53
2023-01-17T04:26:27.337Z,977.59
2023-01-17T04:27:27.347Z,977.59
2023-01-17T04:28:27.264Z,977.56
2023-01-17T04:29:27.223Z,977.53
2023-01-17T04:30:27.189Z,977.58
2023-01-17T04:31:27.199Z,977.57
2023-01-17T04:32:27.123Z,977.56
2023-01-17T04:33:27.143Z,977.56
2023-01-17T04:34:27.047Z,977.58
2023-01-17T04:35:27.004Z,977.61
2023-01-17T04:36:26.972Z,977.64
2023-01-17T04:37:26.937Z,977.66
2023-01-17T04:38:26.964Z,977.64
2023-01-17T04:39:26.911Z,977.70
2023-01-17T04:40:26.833Z,977.69
2023-01-17T04:41:26.796Z,977.68
2023-01-17T04:42:26.777Z,977.72
2023-01-17T04:43:26.721Z,977.69
2023-01-17T04:44:26.683Z,977.68
2023-01-17T04:45:26.706Z,977.70
2023-01-17T04:46:26.684Z,977.67
2023-01-17T04:47:26.572Z,977.70
2023-01-17T04:48:26.549Z,977.76
2023-01-17T04:49:26.505Z,977.75
2023-01-17T04:50:26.464Z,977.76
2023-01-17T04:51:26.493Z,977.77
2023-01-17T04:52:26.387Z,977.73
2023-01-17T04:53:26.353Z,977.78
2023-01-17T04:54:26.323Z,977.81
2023-01-17T04:55:26.284Z,977.80
2023-01-17T04:56:26.248Z,977.86
2023-01-17T04:57:26.268Z,977.89
2023-01-17T04:58:26.173Z,977.94
2023-01-17T04:59:26.190Z,977.95
2023-01-17T05:00:26.123Z,977.95
2023-01-17T05:01:26.147Z,978.01
2023-01-17T05:02:26.068Z,977.96
2023-01-17T05:03:25.999Z,977.97
2023-01-17T05:04:26.025Z,977.97
2023-01-17T05:05:25.919Z,978.01
2023-01-17T05:06:25.892Z,978.02
2023-01-17T05:07:25.871Z,978.01
2023-01-17T05:08:25.812Z,977.93
2023-01-17T05:09:25.779Z,978.02
2023-01-17T05:10:25.802Z,978.04
2023-01-17T05:11:25.712Z,978.04
2023-01-17T05:12:25.667Z,978.04
2023-01-17T05:13:25.658Z,978.05
2023-01-17T05:14:25.619Z,978.09
2023-01-17T05:15:25.713Z,978.09
2023-01-17T05:16:25.519Z,978.14
2023-01-17T05:17:25.478Z,978.19
2023-01-17T05:18:25.446Z,978.15
2023-01-17T05:19:25.415Z,978.13
2023-01-17T05:20:25.379Z,978.26
2023-01-17T05:21:25.409Z,978.26
2023-01-17T05:22:25.298Z,978.26
2023-01-17T05:23:25.272Z,978.29
2023-01-17T05:24:25.233Z,978.33
2023-01-17T05:25:25.220Z,978.32
2023-01-17T05:26:25.239Z,978.38
2023-01-17T05:27:25.170Z,978.38
2023-01-17T05:28:25.098Z,978.42
2023-01-17T05:29:25.090Z,978.47
2023-01-17T05:30:25.022Z,978.44
2023-01-17T05:31:25.163Z,978.45
2023-01-17T05:32:24.942Z,978.49
2023-01-17T05:33:24.909Z,978.42
2023-01-17T05:34:24.877Z,978.46
2023-01-17T05:35:24.837Z,978.49
2023-01-17T05:36:24.796Z,978.52
2023-01-17T05:37:24.827Z,978.51
2023-01-17T05:38:24.730Z,978.60
2023-01-17T05:39:24.687Z,978.58
2023-01-17T05:40:24.655Z,978.56
2023-01-17T05:41:24.628Z,978.56
2023-01-17T05:42:24.642Z,978.61
2023-01-17T05:43:24.544Z,978.54
2023-01-17T05:44:24.509Z,978.57
2023-01-17T05:45:24.495Z,978.61
2023-01-17T05:46:24.470Z,978.63
2023-01-17T05:47:24.474Z,978.61
2023-01-17T05:48:24.375Z,978.64
2023-01-17T05:49:24.323Z,978.65
2023-01-17T05:50:24.284Z,978.66
2023-01-17T05:51:24.252Z,978.71
2023-01-17T05:52:24.212Z,978.71
2023-01-17T05:53:24.247Z,978.72
2023-01-17T05:54:24.150Z,978.75
2023-01-17T05:55:24.110Z,978.73
2023-01-17T05:56:24.069Z,978.82
2023-01-17T05:57:24.036Z,978.84
2023-01-17T05:58:24.047Z,978.82
2023-01-17T05:59:36.516Z,978.80
2023-01-17T06:00:23.931Z,978.82
2023-01-17T06:01:24.046Z,978.79
2023-01-17T06:02:23.867Z,978.87
2023-01-17T06:03:23.820Z,978.87
2023-01-17T06:04:23.843Z,978.82
2023-01-17T06:05:23.743Z,978.85
2023-01-17T06:06:23.704Z,978.82
2023-01-17T06:07:23.666Z,978.84
2023-01-17T06:08:23.640Z,978.94
2023-01-17T06:09:23.594Z,978.97
2023-01-17T06:10:23.627Z,979.01
2023-01-17T06:11:23.535Z,978.99
2023-01-17T06:12:23.499Z,978.98
2023-01-17T06:13:23.452Z,978.99
2023-01-17T06:14:23.415Z,979.07
2023-01-17T06:15:23.378Z,979.05
2023-01-17T06:16:23.504Z,979.07
2023-01-17T06:17:23.310Z,979.06
2023-01-17T06:18:23.283Z,979.11
2023-01-17T06:19:23.230Z,979.14
2023-01-17T06:20:23.201Z,979.14
2023-01-17T06:21:23.164Z,979.16
2023-01-17T06:22:23.179Z,979.18
2023-01-17T06:23:23.097Z,979.23
2023-01-17T06:24:23.052Z,979.25
2023-01-17T06:25:23.015Z,979.24
2023-01-17T06:26:23.040Z,979.27
2023-01-17T06:27:22.946Z,979.27
2023-01-17T06:28:22.919Z,979.32
2023-01-17T06:29:22.873Z,979.26
2023-01-17T06:30:22.849Z,979.30
2023-01-17T06:31:22.945Z,979.28
2023-01-17T06:32:22.769Z,979.26
2023-01-17T06:33:22.731Z,979.32
2023-01-17T06:34:22.697Z,979.28
2023-01-17T06:35:22.663Z,979.30
2023-01-17T06:36:22.622Z,979.24
2023-01-17T06:37:22.635Z,979.25
2023-01-17T06:38:22.538Z,979.25
2023-01-17T06:39:22.513Z,979.27
2023-01-17T06:40:22.475Z,979.30
2023-01-17T06:41:22.441Z,979.27
2023-01-17T06:42:22.469Z,979.31
2023-01-17T06:43:22.378Z,979.31
2023-01-17T06:44:22.335Z,979.27
2023-01-17T06:45:22.293Z,979.33
2023-01-17T06:46:22.264Z,979.30
2023-01-17T06:47:22.211Z,979.32
2023-01-17T06:48:22.245Z,979.34
2023-01-17T06:49:22.154Z,979.34
2023-01-17T06:50:22.112Z,979.38
2023-01-17T06:51:22.079Z,979.39
2023-01-17T06:52:22.093Z,979.37
2023-01-17T06:53:21.991Z,979.41
2023-01-17T06:54:22.036Z,979.42
2023-01-17T06:55:21.929Z,979.43
2023-01-17T06:56:21.893Z,979.48
2023-01-17T06:57:21.854Z,979.55
2023-01-17T06:58:21.817Z,979.50
2023-01-17T06:59:21.779Z,979.54
2023-01-17T07:00:21.857Z,979.54
2023-01-17T07:01:21.817Z,979.58
2023-01-17T07:02:21.665Z,979.64
2023-01-17T07:03:21.637Z,979.61
2023-01-17T07:04:21.604Z,979.65
2023-01-17T07:05:21.553Z,979.66
2023-01-17T07:06:21.581Z,979.69
2023-01-17T07:07:21.523Z,979.71
2023-01-17T07:08:21.466Z,979.74
2023-01-17T07:09:21.410Z,979.67
2023-01-17T07:10:21.389Z,979.67
2023-01-17T07:11:21.346Z,979.73
2023-01-17T07:12:21.370Z,979.72
2023-01-17T07:13:21.259Z,979.76
2023-01-17T07:14:21.232Z,979.80
2023-01-17T07:15:21.192Z,979.81
2023-01-17T07:16:21.210Z,979.79
2023-01-17T07:17:21.127Z,979.80
2023-01-17T07:18:21.149Z,979.79
2023-01-17T07:19:21.067Z,979.83
2023-01-17T07:20:21.010Z,979.81
2023-01-17T07:21:21.028Z,979.85
2023-01-17T07:22:20.933Z,979.88
2023-01-17T07:23:20.914Z,979.92
2023-01-17T07:24:20.865Z,979.89
2023-01-17T07:25:20.832Z,979.88
2023-01-17T07:26:20.845Z,979.92
2023-01-17T07:27:20.757Z,979.89
2023-01-17T07:28:20.719Z,979.91
2023-01-17T07:29:20.690Z,979.80
2023-01-17T07:30:20.635Z,979.91
2023-01-17T07:31:20.711Z,979.90
2023-01-17T07:32:20.597Z,979.89
2023-01-17T07:33:20.543Z,979.90
2023-01-17T07:34:20.495Z,979.91
2023-01-17T07:35:20.494Z,979.92
2023-01-17T07:36:20.502Z,979.96
2023-01-17T07:37:20.392Z,979.94
2023-01-17T07:38:20.381Z,979.99
2023-01-17T07:39:20.307Z,979.93
2023-01-17T07:40:20.278Z,980.04
2023-01-17T07:41:20.246Z,979.99
2023-01-17T07:42:20.632Z,979.98
2023-01-17T07:43:20.163Z,980.04
2023-01-17T07:44:20.138Z,980.08
2023-01-17T07:45:20.105Z,980.04
2023-01-17T07:46:20.086Z,980.12
2023-01-17T07:47:20.024Z,980.12
2023-01-17T07:48:20.046Z,980.11
2023-01-17T07:49:20.063Z,980.10
2023-01-17T07:50:19.910Z,980.14
2023-01-17T07:51:19.887Z,980.09
2023-01-17T07:52:19.852Z,980.17
2023-01-17T07:53:19.816Z,980.11
2023-01-17T07:54:19.824Z,980.15
2023-01-17T07:55:19.732Z,980.20
2023-01-17T07:56:19.696Z,980.12
2023-01-17T07:57:19.655Z,980.19
2023-01-17T07:58:19.631Z,980.24
2023-01-17T07:59:19.584Z,980.18
2023-01-17T08:00:19.637Z,980.22
2023-01-17T08:01:19.644Z,980.16
2023-01-17T08:02:19.466Z,980.19
2023-01-17T08:03:19.444Z,980.19
2023-01-17T08:04:19.394Z,980.15
2023-01-17T08:05:19.374Z,980.16
2023-01-17T08:06:19.391Z,980.21
2023-01-17T08:07:19.284Z,980.17
2023-01-17T08:08:19.251Z,980.17
2023-01-17T08:09:19.217Z,980.17
2023-01-17T08:10:19.181Z,980.16
2023-01-17T08:11:19.147Z,980.19
2023-01-17T08:12:19.153Z,980.12
2023-01-17T08:13:19.067Z,980.22
2023-01-17T08:14:19.037Z,980.28
2023-01-17T08:15:19.011Z,980.29
2023-01-17T08:16:18.959Z,980.27
2023-01-17T08:17:18.926Z,980.27
2023-01-17T08:18:18.963Z,980.29
2023-01-17T08:19:18.867Z,980.30
2023-01-17T08:20:18.809Z,980.31
2023-01-17T08:21:18.843Z,980.37
2023-01-17T08:22:18.744Z,980.34
2023-01-17T08:23:18.710Z,980.34
2023-01-17T08:24:18.724Z,980.36
2023-01-17T08:25:18.650Z,980.41
2023-01-17T08:26:18.594Z,980.38
2023-01-17T08:27:18.610Z,980.42
2023-01-17T08:28:18.538Z,980.41
2023-01-17T08:29:18.493Z,980.45
2023-01-17T08:30:18.451Z,980.44
2023-01-17T08:31:18.430Z,980.40
2023-01-17T08:32:18.436Z,980.46
2023-01-17T08:33:18.351Z,980.45
2023-01-17T08:34:18.319Z,980.41
2023-01-17T08:35:18.270Z,980.50
2023-01-17T08:36:18.266Z,980.57
2023-01-17T08:37:18.212Z,980.59
2023-01-17T08:38:18.214Z,980.55
2023-01-17T08:39:18.125Z,980.56
2023-01-17T08:40:18.100Z,980.56
2023-01-17T08:41:18.054Z,980.61
2023-01-17T08:42:18.023Z,980.64
2023-01-17T08:43:18.035Z,980.58
2023-01-17T08:44:17.946Z,980.66
2023-01-17T08:45:17.907Z,980.69
2023-01-17T08:46:17.876Z,980.69
2023-01-17T08:47:17.833Z,980.65
2023-01-17T08:48:17.874Z,980.72
2023-01-17T08:49:17.763Z,980.69
2023-01-17T08:50:17.727Z,980.70
2023-01-17T08:51:17.693Z,980.79
2023-01-17T08:52:17.654Z,980.76
2023-01-17T08:53:17.619Z,980.79
2023-01-17T08:54:17.643Z,980.74
2023-01-17T08:55:17.546Z,980.77
2023-01-17T08:56:17.541Z,980.74
2023-01-17T08:57:17.472Z,980.84
2023-01-17T08:58:17.435Z,980.79
2023-01-17T08:59:17.394Z,980.81
2023-01-17T09:00:17.424Z,980.83
2023-01-17T09:01:17.397Z,980.82
2023-01-17T09:02:17.286Z,980.89
2023-01-17T09:03:17.254Z,980.87
2023-01-17T09:04:17.283Z,980.93
2023-01-17T09:05:17.178Z,980.94
2023-01-17T09:06:17.257Z,980.91
2023-01-17T09:07:17.126Z,980.96
2023-01-17T09:08:17.081Z,980.95
2023-01-17T09:09:17.042Z,980.97
2023-01-17T09:10:17.009Z,980.95
2023-01-17T09:11:16.963Z,980.98
2023-01-17T09:12:16.980Z,981.01
2023-01-17T09:13:16.902Z,981.18
2023-01-17T09:14:16.856Z,981.20
2023-01-17T09:15:16.824Z,981.18
2023-01-17T09:16:16.833Z,981.12
2023-01-17T09:17:16.739Z,981.21
2023-01-17T09:18:16.760Z,981.28
2023-01-17T09:19:16.675Z,981.28
2023-01-17T09:20:16.639Z,981.37
2023-01-17T09:21:16.602Z,981.33
2023-01-17T09:22:16.591Z,981.35
2023-01-17T09:23:16.609Z,981.36
2023-01-17T09:24:16.506Z,981.36
2023-01-17T09:25:16.459Z,981.52
2023-01-17T09:26:16.419Z,981.50
2023-01-17T09:27:16.385Z,981.47
2023-01-17T09:28:16.349Z,981.42
2023-01-17T09:29:16.370Z,981.52
2023-01-17T09:30:16.277Z,981.51
2023-01-17T09:31:17.593Z,981.55
2023-01-17T09:32:16.208Z,981.65
2023-01-17T09:33:16.179Z,981.62
2023-01-17T09:34:16.132Z,981.58
2023-01-17T09:35:16.151Z,981.63
2023-01-17T09:36:16.064Z,981.61
2023-01-17T09:37:16.019Z,981.67
2023-01-17T09:38:15.987Z,981.70
2023-01-17T09:39:15.954Z,981.66
2023-01-17T09:40:15.920Z,981.81
2023-01-17T09:41:15.952Z,981.70
2023-01-17T09:42:15.847Z,981.80
2023-01-17T09:43:15.827Z,981.81
2023-01-17T09:44:15.772Z,981.76
2023-01-17T09:45:15.740Z,981.83
2023-01-17T09:46:15.744Z,981.87
2023-01-17T09:47:15.746Z,981.76
2023-01-17T09:48:15.634Z,981.86
2023-01-17T09:49:15.590Z,981.86
2023-01-17T09:50:15.559Z,981.90
2023-01-17T09:51:15.539Z,981.90
2023-01-17T09:52:15.482Z,981.96
2023-01-17T09:53:15.555Z,981.91
2023-01-17T09:54:15.431Z,982.00
2023-01-17T09:55:15.381Z,981.97
2023-01-17T09:56:15.340Z,981.95
2023-01-17T09:57:15.313Z,982.00
2023-01-17T09:58:15.265Z,982.01
2023-01-17T09:59:18.535Z,981.95
2023-01-17T10:00:15.202Z,982.04
2023-01-17T10:01:15.285Z,982.10
2023-01-17T10:02:15.290Z,982.04
2023-01-17T10:03:15.205Z,982.13
2023-01-17T10:04:15.140Z,982.12
2023-01-17T10:05:15.070Z,982.16
2023-01-17T10:06:14.981Z,982.21
2023-01-17T10:07:14.956Z,982.22
2023-01-17T10:08:14.912Z,982.15
2023-01-17T10:09:14.886Z,982.20
2023-01-17T10:10:14.835Z,982.23
2023-01-17T10:11:14.867Z,982.28
2023-01-17T10:12:14.768Z,982.29
2023-01-17T10:13:14.732Z,982.24
2023-01-17T10:14:14.699Z,982.25
2023-01-17T10:15:14.665Z,982.30
2023-01-17T10:16:14.676Z,982.33
2023-01-17T10:17:14.640Z,982.35
2023-01-17T10:18:28.905Z,982.42
2023-01-17T10:19:14.515Z,982.41
2023-01-17T10:20:14.478Z,982.37
2023-01-17T10:21:14.444Z,982.40
2023-01-17T10:22:14.413Z,982.43
2023-01-17T10:23:14.430Z,982.45
2023-01-17T10:24:14.394Z,982.43
2023-01-17T10:25:14.296Z,982.51
2023-01-17T10:26:14.281Z,982.47
2023-01-17T10:27:14.275Z,982.51
2023-01-17T10:28:14.196Z,982.54
2023-01-17T10:29:14.203Z,982.56
2023-01-17T10:30:14.118Z,982.60
2023-01-17T10:31:14.139Z,982.67
2023-01-17T10:32:14.053Z,982.59
2023-01-17T10:33:14.003Z,982.63
2023-01-17T10:34:13.974Z,982.64
2023-01-17T10:35:14.950Z,982.64
2023-01-17T10:36:13.909Z,982.69
2023-01-17T10:37:13.864Z,982.61
2023-01-17T10:38:13.827Z,982.66
2023-01-17T10:39:13.793Z,982.65
2023-01-17T10:40:13.753Z,982.64
2023-01-17T10:41:13.765Z,982.69
2023-01-17T10:42:13.677Z,982.69
2023-01-17T10:43:13.641Z,982.70
2023-01-17T10:44:13.607Z,982.73
2023-01-17T10:45:13.572Z,982.70
2023-01-17T10:46:13.582Z,982.69
2023-01-17T10:47:13.559Z,982.75
2023-01-17T10:48:13.468Z,982.75
2023-01-17T10:49:13.429Z,982.76
2023-01-17T10:50:13.462Z,982.82
2023-01-17T10:51:13.362Z,982.80
2023-01-17T10:52:13.351Z,982.82
2023-01-17T10:53:13.342Z,982.84
2023-01-17T10:54:13.247Z,982.86
2023-01-17T10:55:13.234Z,982.83
2023-01-17T10:56:13.175Z,982.87
2023-01-17T10:57:13.149Z,982.88
2023-01-17T10:58:13.109Z,982.89
2023-01-17T10:59:13.112Z,982.89
2023-01-17T11:00:13.051Z,982.87
2023-01-17T11:01:13.169Z,982.92
2023-01-17T11:02:13.008Z,982.90
2023-01-17T11:03:12.927Z,982.96
2023-01-17T11:04:12.906Z,982.95
2023-01-17T11:05:12.916Z,982.88
2023-01-17T11:06:12.830Z,983.01
2023-01-17T11:07:12.798Z,982.92
2023-01-17T11:08:12.747Z,982.91
2023-01-17T11:09:12.728Z,982.90
2023-01-17T11:10:12.685Z,982.87
2023-01-17T11:11:12.685Z,982.91
2023-01-17T11:12:12.604Z,982.88
2023-01-17T11:13:12.571Z,982.87
2023-01-17T11:14:12.527Z,982.88
2023-01-17T11:15:12.517Z,982.88
2023-01-17T11:16:12.507Z,982.91
2023-01-17T11:17:12.482Z,982.95
2023-01-17T11:18:12.412Z,982.91
2023-01-17T11:19:12.346Z,982.97
2023-01-17T11:20:12.309Z,982.97
2023-01-17T11:21:12.384Z,982.95
2023-01-17T11:22:12.234Z,982.93
2023-01-17T11:23:12.443Z,982.99
2023-01-17T11:24:12.161Z,982.95
2023-01-17T11:25:12.142Z,982.94
2023-01-17T11:26:12.105Z,982.89
2023-01-17T11:27:12.053Z,982.91
2023-01-17T11:28:12.038Z,982.91
2023-01-17T11:29:12.042Z,982.95
2023-01-17T11:30:11.936Z,982.91
2023-01-17T11:31:11.969Z,982.99
2023-01-17T11:32:11.882Z,983.01
2023-01-17T11:33:11.859Z,983.01
2023-01-17T11:34:11.797Z,983.01
2023-01-17T11:35:11.830Z,982.98
2023-01-17T11:36:11.727Z,983.00
2023-01-17T11:37:11.713Z,982.97
2023-01-17T11:38:11.659Z,982.97
2023-01-17T11:39:11.619Z,982.99
2023-01-17T11:40:11.584Z,983.06
2023-01-17T11:41:11.597Z,983.06
2023-01-17T11:42:11.520Z,983.08
2023-01-17T11:43:11.479Z,983.10
2023-01-17T11:44:11.444Z,983.15
2023-01-17T11:45:11.393Z,983.13
2023-01-17T11:46:11.439Z,983.12
2023-01-17T11:47:11.384Z,983.14
2023-01-17T11:48:11.288Z,983.14
2023-01-17T11:49:11.254Z,983.15
2023-01-17T11:50:11.234Z,983.21
2023-01-17T11:51:11.175Z,983.23
2023-01-17T11:52:11.144Z,983.21
2023-01-17T11:53:11.160Z,983.24
2023-01-17T11:54:11.076Z,983.23
2023-01-17T11:55:11.036Z,983.21
2023-01-17T11:56:11.007Z,983.15
2023-01-17T11:57:10.971Z,983.20
2023-01-17T11:58:10.925Z,983.21
2023-01-17T11:59:10.951Z,983.19
2023-01-17T12:00:10.861Z,983.22
2023-01-17T12:01:10.846Z,983.19
2023-01-17T12:02:10.779Z,983.17
2023-01-17T12:03:10.744Z,983.18
2023-01-17T12:04:10.727Z,983.18
2023-01-17T12:05:10.751Z,983.13
2023-01-17T12:06:10.635Z,983.18
2023-01-17T12:07:10.673Z,983.15
2023-01-17T12:08:10.568Z,983.15
2023-01-17T12:09:10.525Z,983.19
2023-01-17T12:10:10.497Z,983.22
2023-01-17T12:11:10.522Z,983.22
2023-01-17T12:12:10.424Z,983.20
2023-01-17T12:13:10.380Z,983.27
2023-01-17T12:14:10.358Z,983.14
2023-01-17T12:15:10.329Z,983.32
2023-01-17T12:16:10.307Z,983.28
2023-01-17T12:17:10.322Z,983.25
2023-01-17T12:18:10.241Z,983.26
2023-01-17T12:19:10.171Z,983.26
2023-01-17T12:20:10.132Z,983.33
2023-01-17T12:21:10.095Z,983.24
2023-01-17T12:22:10.049Z,983.28
2023-01-17T12:23:10.060Z,983.25
2023-01-17T12:24:09.981Z,983.32
2023-01-17T12:25:10.039Z,983.27
2023-01-17T12:26:09.903Z,983.36
2023-01-17T12:27:09.878Z,983.34
2023-01-17T12:28:09.841Z,983.37